SBFL/FLN METAR and TAF weather

Enter ICAO airport designator
Station Type Date Time Source
SBFL METAR 2021/07/27 22:00 UTC NOAA

SBFL 272200Z 16009KT 9999 BKN025 BKN035 13/07 Q1015


Station Type Date Time Source
SBFL Decoded METAR 2021/07/27 22:00 UTC NOAA

Florianopolis Aeroporto , Brazil (SBFL) 27-40S 048-33W 5M
Jul 27, 2021 - 06:00 PM EDT / 2021.07.27 2200 UTC
Wind: from the SSE (160 degrees) at 10 MPH (9 KT):0
Visibility: greater than 7 mile(s):0
Sky conditions: mostly cloudy
Temperature: 55 F (13 C)
Dew Point: 44 F (7 C)
Relative Humidity: 66%
Pressure (altimeter): 29.97 in. Hg (1015 hPa)
ob: SBFL 272200Z 16009KT 9999 BKN025 BKN035 13/07 Q1015
cycle: 22

Station Type Date Time Source
SBFL TAF 2021/07/27 18:59 UTC NOAA

TAF SBFL 271500Z 2718/2818 32005KT 8000 SCT020 TX28/2718Z TN17/2805Z
TEMPO 2718/2722 5000 RA BR BKN008
TEMPO 2805/2810 4000 BR BKN010
BECMG 2812/2814 35011KT
RMK PEA

Example: see airport list